createdAt,value
2023-03-02T00:01:11.925Z,4.30
2023-03-02T00:03:41.531Z,4.00
2023-03-02T00:06:10.081Z,3.93
2023-03-02T00:08:39.349Z,3.57
2023-03-02T00:11:06.907Z,4.17
2023-03-02T00:13:38.463Z,3.47
2023-03-02T00:16:06.981Z,3.87
2023-03-02T00:18:35.922Z,4.00
2023-03-02T00:21:03.477Z,4.47
2023-03-02T00:23:31.085Z,3.80
2023-03-02T00:25:58.761Z,3.67
2023-03-02T00:28:26.318Z,3.33
2023-03-02T00:30:53.803Z,3.30
2023-03-02T00:33:21.356Z,3.70
2023-03-02T00:35:50.700Z,3.80
2023-03-02T00:38:18.252Z,3.63
2023-03-02T00:40:46.937Z,4.10
2023-03-02T00:43:14.498Z,3.50
2023-03-02T00:45:42.135Z,3.17
2023-03-02T00:48:10.005Z,3.30
2023-03-02T00:50:41.277Z,4.10
2023-03-02T00:53:10.269Z,3.20
2023-03-02T00:55:38.588Z,3.97
2023-03-02T00:58:06.900Z,4.17
2023-03-02T01:00:35.541Z,3.43
2023-03-02T01:03:06.321Z,4.23
2023-03-02T01:05:37.353Z,4.70
2023-03-02T01:08:05.271Z,4.37
2023-03-02T01:10:35.596Z,3.67
2023-03-02T01:13:03.161Z,4.00
2023-03-02T01:15:30.631Z,4.43
2023-03-02T01:17:59.845Z,3.67
2023-03-02T01:20:27.373Z,3.93
2023-03-02T01:22:54.920Z,3.03
2023-03-02T01:25:22.373Z,3.57
2023-03-02T01:27:51.375Z,5.50
2023-03-02T01:30:18.973Z,4.20
2023-03-02T01:32:46.561Z,3.20
2023-03-02T01:35:14.360Z,2.93
2023-03-02T01:37:42.272Z,3.80
2023-03-02T01:40:13.677Z,3.50
2023-03-02T01:42:48.192Z,3.13
2023-03-02T01:45:51.698Z,3.07
2023-03-02T01:48:28.700Z,4.37
2023-03-02T01:50:57.695Z,2.87
2023-03-02T01:53:28.835Z,3.30
2023-03-02T01:55:57.407Z,3.87
2023-03-02T01:58:26.658Z,4.50
2023-03-02T02:00:57.074Z,3.70
2023-03-02T02:03:27.280Z,3.80
2023-03-02T02:06:04.075Z,3.70
2023-03-02T02:08:32.026Z,4.20
2023-03-02T02:11:01.842Z,3.90
2023-03-02T02:13:29.562Z,5.40
2023-03-02T02:15:58.397Z,3.43
2023-03-02T02:18:27.182Z,3.97
2023-03-02T02:20:56.306Z,3.00
2023-03-02T02:23:28.294Z,4.50
2023-03-02T02:26:11.100Z,2.83
2023-03-02T02:28:42.903Z,4.23
2023-03-02T02:31:16.114Z,4.37
2023-03-02T02:33:47.457Z,4.67
2023-03-02T02:36:19.657Z,5.63
2023-03-02T02:38:52.374Z,6.60
2023-03-02T02:41:27.121Z,7.87
2023-03-02T02:43:55.155Z,6.10
2023-03-02T02:46:23.466Z,7.97
2023-03-02T02:48:51.169Z,8.17
2023-03-02T02:51:22.438Z,6.87
2023-03-02T02:53:58.524Z,9.37
2023-03-02T02:56:33.228Z,8.50
2023-03-02T02:59:05.233Z,8.03
2023-03-02T03:01:34.971Z,8.63
2023-03-02T03:04:06.153Z,8.10
2023-03-02T03:06:42.067Z,8.57
2023-03-02T03:09:11.415Z,8.53
2023-03-02T03:11:50.166Z,9.30
2023-03-02T03:14:20.818Z,9.87
2023-03-02T03:16:52.106Z,8.40
2023-03-02T03:19:22.721Z,8.70
2023-03-02T03:21:53.637Z,8.97
2023-03-02T03:24:22.571Z,9.00
2023-03-02T03:26:51.706Z,9.67
2023-03-02T03:29:20.236Z,9.27
2023-03-02T03:31:48.297Z,9.10
2023-03-02T03:34:15.860Z,10.27
2023-03-02T03:36:44.221Z,9.43
2023-03-02T03:39:13.404Z,10.30
2023-03-02T03:41:41.796Z,9.70
2023-03-02T03:44:12.124Z,10.43
2023-03-02T03:46:42.624Z,10.93
2023-03-02T03:49:10.425Z,10.30
2023-03-02T03:51:38.260Z,10.03
2023-03-02T03:54:09.612Z,10.27
2023-03-02T03:56:42.530Z,8.47
2023-03-02T03:59:14.260Z,10.70
2023-03-02T04:01:50.179Z,8.77
2023-03-02T04:04:20.791Z,10.50
2023-03-02T04:06:49.346Z,10.43
2023-03-02T04:09:18.921Z,10.30
2023-03-02T04:11:49.094Z,10.70
2023-03-02T04:14:19.024Z,10.87
2023-03-02T04:16:46.659Z,10.53
2023-03-02T04:19:17.387Z,10.10
2023-03-02T04:21:50.294Z,10.40
2023-03-02T04:24:20.685Z,11.27
2023-03-02T04:26:49.473Z,11.93
2023-03-02T04:29:19.403Z,9.77
2023-03-02T04:31:48.303Z,9.57
2023-03-02T04:34:16.496Z,11.53
2023-03-02T04:36:45.749Z,10.67
2023-03-02T04:39:17.379Z,9.97
2023-03-02T04:41:49.744Z,12.00
2023-03-02T04:44:20.090Z,11.90
2023-03-02T04:46:48.712Z,11.40
2023-03-02T04:49:18.246Z,12.33
2023-03-02T04:51:48.213Z,11.60
2023-03-02T04:54:18.686Z,9.83
2023-03-02T04:56:50.872Z,10.67
2023-03-02T04:59:23.952Z,10.87
2023-03-02T05:01:51.658Z,9.10
2023-03-02T05:04:19.830Z,10.90
2023-03-02T05:06:47.589Z,11.90
2023-03-02T05:09:15.218Z,9.43
2023-03-02T05:11:43.020Z,10.30
2023-03-02T05:14:13.285Z,11.90
2023-03-02T05:16:43.000Z,9.17
2023-03-02T05:19:13.313Z,11.20
2023-03-02T05:21:41.239Z,10.33
2023-03-02T05:24:08.946Z,9.70
2023-03-02T05:26:36.515Z,9.20
2023-03-02T05:29:04.493Z,11.10
2023-03-02T05:31:35.318Z,10.10
2023-03-02T05:34:05.234Z,11.43
2023-03-02T05:36:33.317Z,11.90
2023-03-02T05:39:01.103Z,10.60
2023-03-02T05:41:28.765Z,9.27
2023-03-02T05:43:56.346Z,10.57
2023-03-02T05:46:24.133Z,10.10
2023-03-02T05:48:51.602Z,9.23
2023-03-02T05:51:20.656Z,9.90
2023-03-02T05:53:48.452Z,9.87
2023-03-02T05:56:15.998Z,10.53
2023-03-02T05:58:43.502Z,10.40
2023-03-02T06:01:15.277Z,10.03
2023-03-02T06:03:43.223Z,11.37
2023-03-02T06:06:14.286Z,11.10
2023-03-02T06:08:45.001Z,9.87
2023-03-02T06:11:13.134Z,9.60
2023-03-02T06:13:41.268Z,9.47
2023-03-02T06:16:09.620Z,12.70
2023-03-02T06:18:40.893Z,10.47
2023-03-02T06:21:09.788Z,8.17
2023-03-02T06:23:37.275Z,10.93
2023-03-02T06:26:10.578Z,8.27
2023-03-02T06:28:51.480Z,10.30
2023-03-02T06:31:20.060Z,9.50
2023-03-02T06:33:47.589Z,9.00
2023-03-02T06:36:24.450Z,10.33
2023-03-02T06:38:52.137Z,8.67
2023-03-02T06:41:21.060Z,9.43
2023-03-02T06:43:48.714Z,11.90
2023-03-02T06:46:16.356Z,9.33
2023-03-02T06:48:43.939Z,9.67
2023-03-02T06:51:12.616Z,8.90
2023-03-02T06:53:40.247Z,10.37
2023-03-02T06:56:08.827Z,11.03
2023-03-02T06:58:38.368Z,11.03
2023-03-02T07:01:07.760Z,9.77
2023-03-02T07:03:36.176Z,9.10
2023-03-02T07:06:04.328Z,9.33
2023-03-02T07:08:32.116Z,11.53
2023-03-02T07:11:07.756Z,8.23
2023-03-02T07:13:35.721Z,11.63
2023-03-02T07:16:08.794Z,8.50
2023-03-02T07:18:36.873Z,8.70
2023-03-02T07:21:07.839Z,8.23
2023-03-02T07:23:35.700Z,8.83
2023-03-02T07:26:05.149Z,9.90
2023-03-02T07:28:32.770Z,9.27
2023-03-02T07:31:00.572Z,10.70
2023-03-02T07:33:29.999Z,9.63
2023-03-02T07:35:58.307Z,10.30
2023-03-02T07:38:26.053Z,9.00
2023-03-02T07:40:53.684Z,9.60
2023-03-02T07:43:25.530Z,8.30
2023-03-02T07:45:53.624Z,9.33
2023-03-02T07:48:23.134Z,8.10
2023-03-02T07:50:51.935Z,10.10
2023-03-02T07:53:19.458Z,9.63
2023-03-02T07:55:46.976Z,9.70
2023-03-02T07:58:14.627Z,9.50
2023-03-02T08:00:42.803Z,10.27
2023-03-02T08:03:10.520Z,11.73
2023-03-02T08:05:38.035Z,9.30
2023-03-02T08:08:07.087Z,8.93
2023-03-02T08:10:35.005Z,9.30
2023-03-02T08:13:02.599Z,9.77
2023-03-02T08:15:30.076Z,8.57
2023-03-02T08:17:57.639Z,8.23
2023-03-02T08:20:25.458Z,8.43
2023-03-02T08:22:53.194Z,9.97
2023-03-02T08:25:22.009Z,8.30
2023-03-02T08:27:49.578Z,9.30
2023-03-02T08:30:17.292Z,10.20
2023-03-02T08:32:44.913Z,9.27
2023-03-02T08:35:13.734Z,7.50
2023-03-02T08:37:41.224Z,8.67
2023-03-02T08:40:09.784Z,8.50
2023-03-02T08:42:38.604Z,8.90
2023-03-02T08:45:07.276Z,9.07
2023-03-02T08:47:34.771Z,9.27
2023-03-02T08:50:02.231Z,7.70
2023-03-02T08:52:29.804Z,8.80
2023-03-02T08:55:02.009Z,9.60
2023-03-02T08:57:30.760Z,7.90
2023-03-02T08:59:59.601Z,8.83
2023-03-02T09:02:27.240Z,8.07
2023-03-02T09:04:55.756Z,8.47
2023-03-02T09:07:23.313Z,8.17
2023-03-02T09:09:50.983Z,7.77
2023-03-02T09:12:18.457Z,8.20
2023-03-02T09:14:45.915Z,8.30
2023-03-02T09:17:15.529Z,9.53
2023-03-02T09:19:44.554Z,9.57
2023-03-02T09:22:12.609Z,9.50
2023-03-02T09:24:40.099Z,7.80
2023-03-02T09:27:07.654Z,7.67
2023-03-02T09:29:35.170Z,13.03
2023-03-02T09:32:02.736Z,11.73
2023-03-02T09:34:31.662Z,15.27
2023-03-02T09:36:59.141Z,7.83
2023-03-02T09:39:26.806Z,10.27
2023-03-02T09:42:27.130Z,8.57
2023-03-02T09:45:08.492Z,8.70
2023-03-02T09:47:44.332Z,8.70
2023-03-02T09:50:27.037Z,8.97
2023-03-02T09:53:10.130Z,9.13
2023-03-02T09:55:38.621Z,8.63
2023-03-02T09:58:07.887Z,7.60
2023-03-02T10:00:37.446Z,9.33
2023-03-02T10:03:16.783Z,10.00
2023-03-02T10:05:49.346Z,7.60
2023-03-02T10:08:20.606Z,8.83
2023-03-02T10:10:55.039Z,8.53
2023-03-02T10:13:29.030Z,8.90
2023-03-02T10:16:09.131Z,8.40
2023-03-02T10:18:39.976Z,10.90
2023-03-02T10:21:15.353Z,8.83
2023-03-02T10:23:47.211Z,9.53
2023-03-02T10:26:26.966Z,8.33
2023-03-02T10:29:01.489Z,8.77
2023-03-02T10:31:31.165Z,9.80
2023-03-02T10:33:59.194Z,8.70
2023-03-02T10:36:30.657Z,8.50
2023-03-02T10:39:00.405Z,10.63
2023-03-02T10:41:32.862Z,8.97
2023-03-02T10:44:03.338Z,7.97
2023-03-02T10:46:42.669Z,9.03
2023-03-02T10:49:28.587Z,8.17
2023-03-02T10:51:59.270Z,9.20
2023-03-02T10:54:28.753Z,8.83
2023-03-02T10:56:58.892Z,9.83
2023-03-02T10:59:43.220Z,9.07
2023-03-02T11:02:18.188Z,8.50
2023-03-02T11:04:46.041Z,9.50
2023-03-02T11:07:18.629Z,10.13
2023-03-02T11:09:57.859Z,10.30
2023-03-02T11:12:25.796Z,8.80
2023-03-02T11:15:17.319Z,10.03
2023-03-02T11:17:47.324Z,10.23
2023-03-02T11:20:20.456Z,11.03
2023-03-02T11:23:00.812Z,9.27
2023-03-02T11:25:33.412Z,9.07
2023-03-02T11:28:06.388Z,8.73
2023-03-02T11:30:39.700Z,9.00
2023-03-02T11:33:14.006Z,9.53
2023-03-02T11:35:47.108Z,9.00
2023-03-02T11:38:20.618Z,9.80
2023-03-02T11:40:52.120Z,8.40
2023-03-02T11:43:19.713Z,9.30
2023-03-02T11:45:49.035Z,10.87
2023-03-02T11:48:23.363Z,9.93
2023-03-02T11:50:58.186Z,10.10
2023-03-02T11:53:34.144Z,9.10
2023-03-02T11:56:01.730Z,9.77
2023-03-02T11:58:30.606Z,9.37
2023-03-02T12:00:58.757Z,9.10
2023-03-02T12:03:39.800Z,10.53
2023-03-02T12:06:25.176Z,10.80
2023-03-02T12:08:56.777Z,11.43
2023-03-02T12:11:36.356Z,12.13
2023-03-02T12:14:05.938Z,11.47
2023-03-02T12:16:40.781Z,9.87
2023-03-02T12:19:25.099Z,12.00
2023-03-02T12:22:00.218Z,12.57
2023-03-02T12:24:32.099Z,12.83
2023-03-02T12:27:04.719Z,15.40
2023-03-02T12:29:42.157Z,8.77
2023-03-02T12:32:23.511Z,11.20
2023-03-02T12:34:55.620Z,10.00
2023-03-02T12:37:27.110Z,12.97
2023-03-02T12:40:25.249Z,11.57
2023-03-02T12:43:22.947Z,10.43
2023-03-02T12:46:25.031Z,9.93
2023-03-02T12:49:00.349Z,9.70
2023-03-02T12:51:30.140Z,11.47
2023-03-02T12:54:05.457Z,11.80
2023-03-02T12:56:35.136Z,11.57
2023-03-02T12:59:02.919Z,10.37
2023-03-02T13:01:32.577Z,9.40
2023-03-02T13:04:00.350Z,10.07
2023-03-02T13:06:33.320Z,10.90
2023-03-02T13:09:01.311Z,10.47
2023-03-02T13:11:32.834Z,11.20
2023-03-02T13:14:04.064Z,10.27
2023-03-02T13:16:36.742Z,10.70
2023-03-02T13:19:12.147Z,10.40
2023-03-02T13:21:40.837Z,10.90
2023-03-02T13:24:27.074Z,10.10
2023-03-02T13:27:00.456Z,9.90
2023-03-02T13:29:31.724Z,10.50
2023-03-02T13:32:08.752Z,11.47
2023-03-02T13:34:36.680Z,12.00
2023-03-02T13:37:20.633Z,10.23
2023-03-02T13:39:56.480Z,8.90
2023-03-02T13:42:28.380Z,10.80
2023-03-02T13:44:57.267Z,10.53
2023-03-02T13:47:25.807Z,12.30
2023-03-02T13:49:53.352Z,11.13
2023-03-02T13:52:28.956Z,12.67
2023-03-02T13:54:56.595Z,9.10
2023-03-02T13:57:30.879Z,11.43
2023-03-02T14:00:00.946Z,10.67
2023-03-02T14:02:30.368Z,9.93
2023-03-02T14:04:58.623Z,10.13
2023-03-02T14:07:26.206Z,8.93
2023-03-02T14:09:54.569Z,9.20
2023-03-02T14:12:26.809Z,9.37
2023-03-02T14:14:57.004Z,11.67
2023-03-02T14:17:27.439Z,9.77
2023-03-02T14:19:55.476Z,11.13
2023-03-02T14:22:24.490Z,12.77
2023-03-02T14:24:51.987Z,12.00
2023-03-02T14:27:20.171Z,9.63
2023-03-02T14:29:50.835Z,11.20
2023-03-02T14:32:21.109Z,10.83
2023-03-02T14:34:50.088Z,9.80
2023-03-02T14:37:21.859Z,10.63
2023-03-02T14:39:55.602Z,9.77
2023-03-02T14:42:24.227Z,11.60
2023-03-02T14:44:52.812Z,11.53
2023-03-02T14:47:21.629Z,14.07
2023-03-02T14:49:50.570Z,12.40
2023-03-02T14:52:23.503Z,19.90
2023-03-02T14:54:54.848Z,16.63
2023-03-02T14:57:25.715Z,10.23
2023-03-02T14:59:54.052Z,10.87
2023-03-02T15:02:26.902Z,16.10
2023-03-02T15:04:57.381Z,11.40
2023-03-02T15:07:27.233Z,11.90
2023-03-02T15:09:55.749Z,13.33
2023-03-02T15:12:23.288Z,13.53
2023-03-02T15:14:50.791Z,11.30
2023-03-02T15:17:18.312Z,10.83
2023-03-02T15:19:48.286Z,11.33
2023-03-02T15:22:17.985Z,10.07
2023-03-02T15:24:48.265Z,10.73
2023-03-02T15:27:15.921Z,12.60
2023-03-02T15:29:47.022Z,13.63
2023-03-02T15:32:14.962Z,10.83
2023-03-02T15:34:42.881Z,10.40
2023-03-02T15:37:11.198Z,11.43
2023-03-02T15:39:40.468Z,11.47
2023-03-02T15:42:08.289Z,11.00
2023-03-02T15:44:35.803Z,11.57
2023-03-02T15:47:03.503Z,11.13
2023-03-02T15:49:32.804Z,11.40
2023-03-02T15:52:00.683Z,14.30
2023-03-02T15:54:29.583Z,11.33
2023-03-02T15:56:58.646Z,11.50
2023-03-02T15:59:30.918Z,10.07
2023-03-02T16:01:59.666Z,11.80
2023-03-02T16:04:28.042Z,11.80
2023-03-02T16:06:58.361Z,11.20
2023-03-02T16:09:28.873Z,11.73
2023-03-02T16:11:58.092Z,11.23
2023-03-02T16:14:25.951Z,13.03
2023-03-02T16:16:53.595Z,11.03
2023-03-02T16:19:21.406Z,10.53
2023-03-02T16:21:50.398Z,11.60
2023-03-02T16:24:17.871Z,11.60
2023-03-02T16:26:46.141Z,10.57
2023-03-02T16:29:15.306Z,10.23
2023-03-02T16:31:46.474Z,10.97
2023-03-02T16:34:14.749Z,11.70
2023-03-02T16:36:43.045Z,10.60
2023-03-02T16:39:12.260Z,10.97
2023-03-02T16:41:40.502Z,9.60
2023-03-02T16:44:08.351Z,10.80
2023-03-02T16:46:39.322Z,12.60
2023-03-02T16:49:07.374Z,11.73
2023-03-02T16:51:35.093Z,10.67
2023-03-02T16:54:02.772Z,12.37
2023-03-02T16:56:30.259Z,12.27
2023-03-02T16:58:59.827Z,10.37
2023-03-02T17:01:28.008Z,11.40
2023-03-02T17:03:57.429Z,9.17
2023-03-02T17:06:25.839Z,11.47
2023-03-02T17:08:54.674Z,11.97
2023-03-02T17:11:22.517Z,10.83
2023-03-02T17:13:50.220Z,9.60
2023-03-02T17:16:19.102Z,9.80
2023-03-02T17:18:46.895Z,9.80
2023-03-02T17:21:17.758Z,11.20
2023-03-02T17:23:49.027Z,10.53
2023-03-02T17:26:17.791Z,10.27
2023-03-02T17:28:45.360Z,9.97
2023-03-02T17:31:13.161Z,8.80
2023-03-02T17:33:40.644Z,10.10
2023-03-02T17:36:11.857Z,10.13
2023-03-02T17:38:41.076Z,10.00
2023-03-02T17:41:10.045Z,10.27
2023-03-02T17:43:39.013Z,9.70
2023-03-02T17:46:16.294Z,9.07
2023-03-02T17:48:43.959Z,8.30
2023-03-02T17:51:14.750Z,12.93
2023-03-02T17:53:44.194Z,8.50
2023-03-02T17:56:12.699Z,10.40
2023-03-02T17:58:45.109Z,7.90
2023-03-02T18:01:15.530Z,6.47
2023-03-02T18:03:43.098Z,7.60
2023-03-02T18:06:10.595Z,12.07
2023-03-02T18:08:38.334Z,9.10
2023-03-02T18:11:07.760Z,7.53
2023-03-02T18:13:36.168Z,7.43
2023-03-02T18:16:04.251Z,6.23
2023-03-02T18:18:31.740Z,6.70
2023-03-02T18:20:59.296Z,7.07
2023-03-02T18:23:27.080Z,7.47
2023-03-02T18:25:54.738Z,7.00
2023-03-02T18:28:23.705Z,6.60
2023-03-02T18:30:51.275Z,6.13
2023-03-02T18:33:18.809Z,6.00
2023-03-02T18:35:46.552Z,7.13
2023-03-02T18:38:14.054Z,7.50
2023-03-02T18:40:41.667Z,7.77
2023-03-02T18:43:09.506Z,8.83
2023-03-02T18:45:38.576Z,7.33
2023-03-02T18:48:07.371Z,12.07
2023-03-02T18:50:35.100Z,8.13
2023-03-02T18:53:02.701Z,7.40
2023-03-02T18:55:30.334Z,6.40
2023-03-02T18:57:57.884Z,8.50
2023-03-02T19:00:28.228Z,7.10
2023-03-02T19:02:57.860Z,5.60
2023-03-02T19:05:26.984Z,5.90
2023-03-02T19:07:57.425Z,10.47
2023-03-02T19:10:25.041Z,44.07
2023-03-02T19:12:52.664Z,28.00
2023-03-02T19:15:20.552Z,7.80
2023-03-02T19:17:51.656Z,7.37
2023-03-02T19:20:25.934Z,10.47
2023-03-02T19:22:53.473Z,7.80
2023-03-02T19:25:21.582Z,7.87
2023-03-02T19:27:49.428Z,8.70
2023-03-02T19:30:21.364Z,10.77
2023-03-02T19:32:48.912Z,7.80
2023-03-02T19:35:18.265Z,7.47
2023-03-02T19:37:50.451Z,10.00
2023-03-02T19:40:19.045Z,6.90
2023-03-02T19:42:47.401Z,10.83
2023-03-02T19:45:17.660Z,11.20
2023-03-02T19:47:47.114Z,8.50
2023-03-02T19:50:15.562Z,6.90
2023-03-02T19:52:43.737Z,7.60
2023-03-02T19:55:15.013Z,7.20
2023-03-02T19:57:45.793Z,6.90
2023-03-02T20:00:16.718Z,8.30
2023-03-02T20:02:45.010Z,6.33
2023-03-02T20:05:12.972Z,6.37
2023-03-02T20:07:41.804Z,8.60
2023-03-02T20:10:21.648Z,8.73
2023-03-02T20:12:49.304Z,7.53
2023-03-02T20:15:17.567Z,10.33
2023-03-02T20:17:49.109Z,13.57
2023-03-02T20:20:19.782Z,11.00
2023-03-02T20:22:49.595Z,9.00
2023-03-02T20:25:24.121Z,5.27
2023-03-02T20:27:52.895Z,6.40
2023-03-02T20:30:27.525Z,9.53
2023-03-02T20:32:55.911Z,5.97
2023-03-02T20:35:24.912Z,9.67
2023-03-02T20:37:56.349Z,8.10
2023-03-02T20:40:26.132Z,8.50
2023-03-02T20:43:00.666Z,8.53
2023-03-02T20:45:30.190Z,6.33
2023-03-02T20:47:58.660Z,7.50
2023-03-02T20:50:30.268Z,6.63
2023-03-02T20:52:57.821Z,7.33
2023-03-02T20:55:27.184Z,6.93
2023-03-02T20:57:55.916Z,8.03
2023-03-02T21:00:27.094Z,8.40
2023-03-02T21:02:54.744Z,7.20
2023-03-02T21:05:23.009Z,7.13
2023-03-02T21:07:51.882Z,7.37
2023-03-02T21:10:22.530Z,8.07
2023-03-02T21:12:51.836Z,6.10
2023-03-02T21:15:20.114Z,7.70
2023-03-02T21:17:48.548Z,6.97
2023-03-02T21:20:18.353Z,7.27
2023-03-02T21:22:46.150Z,6.93
2023-03-02T21:25:13.886Z,8.07
2023-03-02T21:27:43.733Z,9.47
2023-03-02T21:30:19.669Z,5.87
2023-03-02T21:32:47.624Z,6.83
2023-03-02T21:35:18.069Z,7.77
2023-03-02T21:37:45.603Z,7.63
2023-03-02T21:40:17.035Z,7.57
2023-03-02T21:42:44.976Z,8.47
2023-03-02T21:45:14.627Z,8.20
2023-03-02T21:47:43.431Z,6.33
2023-03-02T21:50:14.119Z,8.40
2023-03-02T21:52:41.767Z,6.60
2023-03-02T21:55:11.304Z,8.33
2023-03-02T21:57:38.795Z,5.60
2023-03-02T22:00:10.927Z,8.17
2023-03-02T22:02:39.963Z,7.73
2023-03-02T22:05:07.894Z,8.13
2023-03-02T22:07:35.403Z,7.43
2023-03-02T22:10:03.004Z,7.93
2023-03-02T22:12:33.436Z,5.63
2023-03-02T22:15:07.771Z,6.10
2023-03-02T22:17:35.242Z,6.70
2023-03-02T22:20:17.176Z,6.63
2023-03-02T22:22:44.671Z,7.33
2023-03-02T22:25:16.602Z,6.13
2023-03-02T22:27:44.624Z,6.10
2023-03-02T22:30:24.632Z,7.27
2023-03-02T22:32:52.140Z,7.40
2023-03-02T22:35:29.979Z,5.70
2023-03-02T22:38:07.882Z,6.50
2023-03-02T22:40:36.205Z,6.43
2023-03-02T22:43:15.001Z,7.50
2023-03-02T22:45:42.869Z,6.30
2023-03-02T22:48:18.114Z,4.67
2023-03-02T22:50:53.454Z,6.87
2023-03-02T22:53:25.890Z,7.00
2023-03-02T22:55:59.516Z,6.80
2023-03-02T22:58:46.320Z,6.97
2023-03-02T23:01:22.986Z,6.93
2023-03-02T23:03:52.871Z,5.50
2023-03-02T23:06:26.173Z,5.83
2023-03-02T23:08:55.573Z,7.10
2023-03-02T23:11:24.246Z,5.87
2023-03-02T23:13:53.328Z,6.47
2023-03-02T23:16:23.260Z,7.67
2023-03-02T23:18:52.123Z,5.80
2023-03-02T23:21:23.258Z,7.30
2023-03-02T23:23:51.956Z,6.83
2023-03-02T23:26:20.404Z,5.93
2023-03-02T23:28:49.197Z,7.00
2023-03-02T23:31:18.276Z,5.77
2023-03-02T23:33:46.394Z,5.13
2023-03-02T23:36:14.449Z,6.20
2023-03-02T23:38:43.459Z,5.90
2023-03-02T23:41:10.919Z,7.30
2023-03-02T23:43:38.419Z,7.37
2023-03-02T23:46:06.473Z,5.30
2023-03-02T23:48:35.006Z,6.20
2023-03-02T23:51:02.485Z,5.93
2023-03-02T23:53:30.107Z,6.53
2023-03-02T23:55:59.614Z,6.37
2023-03-02T23:58:27.368Z,5.70
